sensor_id;sensor_type;location;lat;lon;timestamp;pressure;altitude;pressure_sealevel;temperature;humidity
27425;BME280;15244;49.088;11.886;2022-08-04T00:04:44;95827.81;;;29.27;26.60
27425;BME280;15244;49.088;11.886;2022-08-04T00:10:01;95835.69;;;29.17;26.77
27425;BME280;15244;49.088;11.886;2022-08-04T00:15:04;95831.03;;;29.09;27.29
27425;BME280;15244;49.088;11.886;2022-08-04T00:20:08;95828.44;;;29.00;27.29
27425;BME280;15244;49.088;11.886;2022-08-04T00:25:11;95837.06;;;28.90;27.78
27425;BME280;15244;49.088;11.886;2022-08-04T00:30:12;95829.13;;;28.83;27.58
27425;BME280;15244;49.088;11.886;2022-08-04T00:35:15;95838.81;;;28.77;27.87
27425;BME280;15244;49.088;11.886;2022-08-04T00:40:32;95834.41;;;28.70;27.87
27425;BME280;15244;49.088;11.886;2022-08-04T00:57:13;95850.09;;;28.50;28.41
27425;BME280;15244;49.088;11.886;2022-08-04T01:13:14;95839.28;;;28.38;28.75
27425;BME280;15244;49.088;11.886;2022-08-04T01:18:29;95837.97;;;28.33;29.05
27425;BME280;15244;49.088;11.886;2022-08-04T01:29:11;95830.78;;;28.21;29.33
27425;BME280;15244;49.088;11.886;2022-08-04T01:34:19;95832.25;;;28.16;29.60
27425;BME280;15244;49.088;11.886;2022-08-04T01:39:23;95830.19;;;28.11;29.94
27425;BME280;15244;49.088;11.886;2022-08-04T01:44:46;95826.56;;;28.05;29.94
27425;BME280;15244;49.088;11.886;2022-08-04T01:49:51;95828.84;;;28.01;30.27
27425;BME280;15244;49.088;11.886;2022-08-04T01:54:55;95831.09;;;27.97;30.44
27425;BME280;15244;49.088;11.886;2022-08-04T01:59:59;95821.88;;;27.91;30.27
27425;BME280;15244;49.088;11.886;2022-08-04T02:05:04;95826.91;;;27.86;30.56
27425;BME280;15244;49.088;11.886;2022-08-04T02:10:22;95827.66;;;27.81;30.34
27425;BME280;15244;49.088;11.886;2022-08-04T02:15:35;95823.50;;;27.77;30.73
27425;BME280;15244;49.088;11.886;2022-08-04T02:20:45;95826.53;;;27.73;30.79
27425;BME280;15244;49.088;11.886;2022-08-04T02:25:55;95822.41;;;27.69;30.91
27425;BME280;15244;49.088;11.886;2022-08-04T02:31:07;95824.16;;;27.66;31.03
27425;BME280;15244;49.088;11.886;2022-08-04T02:36:18;95828.44;;;27.61;30.95
27425;BME280;15244;49.088;11.886;2022-08-04T02:41:26;95814.69;;;27.58;31.53
27425;BME280;15244;49.088;11.886;2022-08-04T02:46:30;95814.88;;;27.54;31.34
27425;BME280;15244;49.088;11.886;2022-08-04T02:56:38;95802.81;;;27.42;31.68
27425;BME280;15244;49.088;11.886;2022-08-04T03:01:41;95804.28;;;27.38;31.49
27425;BME280;15244;49.088;11.886;2022-08-04T03:23:38;95798.50;;;27.21;32.03
27425;BME280;15244;49.088;11.886;2022-08-04T03:39:56;95804.94;;;27.07;32.37
27425;BME280;15244;49.088;11.886;2022-08-04T03:50:49;95812.50;;;27.00;32.15
27425;BME280;15244;49.088;11.886;2022-08-04T04:07:58;95805.22;;;26.88;32.52
27425;BME280;15244;49.088;11.886;2022-08-04T04:13:36;95802.94;;;26.87;32.92
27425;BME280;15244;49.088;11.886;2022-08-04T04:19:04;95803.41;;;26.85;32.76
27425;BME280;15244;49.088;11.886;2022-08-04T04:30:06;95798.59;;;26.86;33.01
27425;BME280;15244;49.088;11.886;2022-08-04T04:35:36;95806.97;;;26.86;32.86
27425;BME280;15244;49.088;11.886;2022-08-04T04:41:04;95806.50;;;26.87;33.36
27425;BME280;15244;49.088;11.886;2022-08-04T04:46:15;95813.13;;;26.90;32.99
27425;BME280;15244;49.088;11.886;2022-08-04T04:51:41;95812.63;;;26.91;33.02
27425;BME280;15244;49.088;11.886;2022-08-04T04:57:15;95816.47;;;26.94;33.16
27425;BME280;15244;49.088;11.886;2022-08-04T05:02:42;95817.53;;;26.96;33.54
27425;BME280;15244;49.088;11.886;2022-08-04T05:13:36;95830.63;;;27.05;33.43
27425;BME280;15244;49.088;11.886;2022-08-04T05:24:41;95829.91;;;27.10;33.88
27425;BME280;15244;49.088;11.886;2022-08-04T05:30:13;95828.94;;;27.13;33.88
27425;BME280;15244;49.088;11.886;2022-08-04T05:35:21;95826.69;;;27.17;34.20
27425;BME280;15244;49.088;11.886;2022-08-04T05:40:49;95830.84;;;27.22;33.80
27425;BME280;15244;49.088;11.886;2022-08-04T05:45:52;95828.59;;;27.26;33.90
27425;BME280;15244;49.088;11.886;2022-08-04T05:50:55;95829.91;;;27.31;34.03
27425;BME280;15244;49.088;11.886;2022-08-04T05:56:02;95832.78;;;27.36;33.75
27425;BME280;15244;49.088;11.886;2022-08-04T06:01:07;95833.63;;;27.42;33.35
27425;BME280;15244;49.088;11.886;2022-08-04T06:06:11;95833.94;;;27.50;33.55
27425;BME280;15244;49.088;11.886;2022-08-04T06:11:14;95830.69;;;27.57;32.67
27425;BME280;15244;49.088;11.886;2022-08-04T06:16:23;95830.25;;;27.64;32.64
27425;BME280;15244;49.088;11.886;2022-08-04T06:21:30;95836.69;;;27.71;32.23
27425;BME280;15244;49.088;11.886;2022-08-04T06:26:34;95831.13;;;27.76;32.37
27425;BME280;15244;49.088;11.886;2022-08-04T06:31:37;95828.69;;;27.84;31.88
27425;BME280;15244;49.088;11.886;2022-08-04T06:37:18;95835.88;;;27.91;31.91
27425;BME280;15244;49.088;11.886;2022-08-04T06:42:42;95837.72;;;27.99;31.64
27425;BME280;15244;49.088;11.886;2022-08-04T06:47:45;95842.13;;;28.06;31.87
27425;BME280;15244;49.088;11.886;2022-08-04T06:52:48;95842.66;;;28.10;31.81
27425;BME280;15244;49.088;11.886;2022-08-04T06:57:51;95840.44;;;28.20;31.98
27425;BME280;15244;49.088;11.886;2022-08-04T07:02:54;95846.13;;;28.31;31.90
27425;BME280;15244;49.088;11.886;2022-08-04T07:07:56;95849.25;;;28.39;31.33
27425;BME280;15244;49.088;11.886;2022-08-04T07:12:59;95848.59;;;28.49;31.62
27425;BME280;15244;49.088;11.886;2022-08-04T07:18:02;95847.59;;;28.58;31.65
27425;BME280;15244;49.088;11.886;2022-08-04T07:23:06;95836.94;;;28.68;31.42
27425;BME280;15244;49.088;11.886;2022-08-04T07:28:08;95839.03;;;28.79;31.33
27425;BME280;15244;49.088;11.886;2022-08-04T07:33:10;95839.59;;;28.88;31.08
27425;BME280;15244;49.088;11.886;2022-08-04T07:38:13;95852.16;;;28.99;31.08
27425;BME280;15244;49.088;11.886;2022-08-04T07:43:17;95854.28;;;29.09;31.01
27425;BME280;15244;49.088;11.886;2022-08-04T07:48:19;95851.50;;;29.21;31.03
27425;BME280;15244;49.088;11.886;2022-08-04T07:53:25;95844.41;;;29.31;30.64
27425;BME280;15244;49.088;11.886;2022-08-04T07:58:47;95841.38;;;29.40;30.76
27425;BME280;15244;49.088;11.886;2022-08-04T08:03:54;95848.03;;;29.54;30.64
27425;BME280;15244;49.088;11.886;2022-08-04T08:08:57;95840.44;;;29.66;30.38
27425;BME280;15244;49.088;11.886;2022-08-04T08:14:14;95840.72;;;29.79;30.15
27425;BME280;15244;49.088;11.886;2022-08-04T08:19:16;95836.63;;;29.91;30.29
27425;BME280;15244;49.088;11.886;2022-08-04T08:24:18;95836.88;;;30.05;29.99
27425;BME280;15244;49.088;11.886;2022-08-04T08:29:20;95836.38;;;30.17;30.02
27425;BME280;15244;49.088;11.886;2022-08-04T08:34:22;95828.47;;;30.27;30.15
27425;BME280;15244;49.088;11.886;2022-08-04T08:39:51;95832.06;;;30.39;29.81
27425;BME280;15244;49.088;11.886;2022-08-04T08:45:57;95830.75;;;30.51;29.84
27425;BME280;15244;49.088;11.886;2022-08-04T08:51:04;95833.25;;;30.66;29.51
27425;BME280;15244;49.088;11.886;2022-08-04T09:12:04;95832.31;;;31.22;28.68
27425;BME280;15244;49.088;11.886;2022-08-04T09:17:17;95839.19;;;31.38;29.00
27425;BME280;15244;49.088;11.886;2022-08-04T09:22:28;95833.75;;;31.51;28.77
27425;BME280;15244;49.088;11.886;2022-08-04T09:27:42;95829.84;;;31.65;28.26
27425;BME280;15244;49.088;11.886;2022-08-04T09:38:26;95836.81;;;31.94;27.56
27425;BME280;15244;49.088;11.886;2022-08-04T09:43:50;95836.97;;;32.08;27.50
27425;BME280;15244;49.088;11.886;2022-08-04T09:55:10;95824.41;;;32.39;26.77
27425;BME280;15244;49.088;11.886;2022-08-04T10:00:14;95824.03;;;32.54;26.30
27425;BME280;15244;49.088;11.886;2022-08-04T10:05:21;95811.09;;;32.64;25.35
27425;BME280;15244;49.088;11.886;2022-08-04T10:10:39;95812.19;;;32.80;25.73
27425;BME280;15244;49.088;11.886;2022-08-04T10:27:21;95798.84;;;33.24;25.13
27425;BME280;15244;49.088;11.886;2022-08-04T10:38:07;95784.31;;;33.52;25.07
27425;BME280;15244;49.088;11.886;2022-08-04T10:43:24;95785.94;;;33.66;24.79
27425;BME280;15244;49.088;11.886;2022-08-04T10:53:50;95786.06;;;33.93;24.36
27425;BME280;15244;49.088;11.886;2022-08-04T10:59:02;95778.69;;;34.03;23.80
27425;BME280;15244;49.088;11.886;2022-08-04T11:04:09;95782.84;;;34.16;23.59
27425;BME280;15244;49.088;11.886;2022-08-04T11:09:13;95775.94;;;34.30;23.37
27425;BME280;15244;49.088;11.886;2022-08-04T11:14:30;95782.38;;;34.44;24.00
27425;BME280;15244;49.088;11.886;2022-08-04T11:19:48;95773.91;;;34.57;23.45
27425;BME280;15244;49.088;11.886;2022-08-04T11:25:07;95774.91;;;34.73;23.07
27425;BME280;15244;49.088;11.886;2022-08-04T11:30:23;95763.91;;;34.83;22.80
27425;BME280;15244;49.088;11.886;2022-08-04T11:35:44;95764.97;;;34.93;22.70
27425;BME280;15244;49.088;11.886;2022-08-04T11:40:51;95761.56;;;35.08;22.90
27425;BME280;15244;49.088;11.886;2022-08-04T11:46:08;95758.72;;;35.21;22.53
27425;BME280;15244;49.088;11.886;2022-08-04T11:51:13;95752.28;;;35.34;22.37
27425;BME280;15244;49.088;11.886;2022-08-04T11:56:16;95756.91;;;35.45;22.48
27425;BME280;15244;49.088;11.886;2022-08-04T12:01:53;95757.66;;;35.58;22.48
27425;BME280;15244;49.088;11.886;2022-08-04T12:07:20;95742.88;;;35.73;21.88
27425;BME280;15244;49.088;11.886;2022-08-04T12:18:09;95749.66;;;35.91;21.65
27425;BME280;15244;49.088;11.886;2022-08-04T12:23:25;95739.34;;;36.01;21.49
27425;BME280;15244;49.088;11.886;2022-08-04T12:28:39;95737.69;;;36.06;20.96
27425;BME280;15244;49.088;11.886;2022-08-04T12:34:06;95735.69;;;36.14;21.00
27425;BME280;15244;49.088;11.886;2022-08-04T12:39:18;95740.31;;;36.25;21.42
27425;BME280;15244;49.088;11.886;2022-08-04T12:44:20;95735.59;;;36.28;20.82
27425;BME280;15244;49.088;11.886;2022-08-04T12:49:43;95729.22;;;36.35;20.85
27425;BME280;15244;49.088;11.886;2022-08-04T12:55:04;95715.50;;;36.47;20.86
27425;BME280;15244;49.088;11.886;2022-08-04T13:00:07;95711.38;;;36.55;20.68
27425;BME280;15244;49.088;11.886;2022-08-04T13:05:10;95714.88;;;36.69;20.40
27425;BME280;15244;49.088;11.886;2022-08-04T13:10:21;95708.13;;;36.80;19.86
27425;BME280;15244;49.088;11.886;2022-08-04T13:15:30;95703.75;;;36.79;19.57
27425;BME280;15244;49.088;11.886;2022-08-04T13:20:54;95691.47;;;36.84;19.96
27425;BME280;15244;49.088;11.886;2022-08-04T13:25:57;95692.44;;;36.94;20.29
27425;BME280;15244;49.088;11.886;2022-08-04T13:31:21;95689.63;;;37.02;19.68
27425;BME280;15244;49.088;11.886;2022-08-04T13:36:24;95679.78;;;37.03;19.60
27425;BME280;15244;49.088;11.886;2022-08-04T13:41:28;95686.84;;;37.09;19.52
27425;BME280;15244;49.088;11.886;2022-08-04T13:46:46;95684.06;;;37.17;19.79
27425;BME280;15244;49.088;11.886;2022-08-04T13:51:55;95671.75;;;37.22;19.33
27425;BME280;15244;49.088;11.886;2022-08-04T13:57:00;95675.34;;;37.23;18.67
27425;BME280;15244;49.088;11.886;2022-08-04T14:02:06;95677.81;;;37.26;19.10
27425;BME280;15244;49.088;11.886;2022-08-04T14:07:14;95670.06;;;37.42;18.93
27425;BME280;15244;49.088;11.886;2022-08-04T14:12:23;95661.75;;;37.60;19.44
27425;BME280;15244;49.088;11.886;2022-08-04T14:17:45;95666.91;;;37.77;18.57
27425;BME280;15244;49.088;11.886;2022-08-04T14:22:59;95665.94;;;37.89;19.26
27425;BME280;15244;49.088;11.886;2022-08-04T14:28:01;95650.22;;;38.04;18.92
27425;BME280;15244;49.088;11.886;2022-08-04T14:33:06;95651.91;;;38.22;18.80
27425;BME280;15244;49.088;11.886;2022-08-04T14:38:54;95640.84;;;38.42;18.79
27425;BME280;15244;49.088;11.886;2022-08-04T14:44:02;95635.69;;;38.55;17.81
27425;BME280;15244;49.088;11.886;2022-08-04T14:49:09;95635.09;;;38.65;17.81
27425;BME280;15244;49.088;11.886;2022-08-04T14:54:13;95638.88;;;38.75;17.86
27425;BME280;15244;49.088;11.886;2022-08-04T14:59:20;95629.31;;;38.88;18.08
27425;BME280;15244;49.088;11.886;2022-08-04T15:04:24;95626.78;;;38.99;18.08
27425;BME280;15244;49.088;11.886;2022-08-04T15:09:27;95629.56;;;39.15;18.13
27425;BME280;15244;49.088;11.886;2022-08-04T15:14:30;95621.91;;;39.25;17.56
27425;BME280;15244;49.088;11.886;2022-08-04T15:19:39;95623.56;;;39.36;17.19
27425;BME280;15244;49.088;11.886;2022-08-04T15:24:56;95626.13;;;39.49;17.46
27425;BME280;15244;49.088;11.886;2022-08-04T15:30:02;95624.56;;;39.56;17.28
27425;BME280;15244;49.088;11.886;2022-08-04T15:35:11;95612.09;;;39.69;17.13
27425;BME280;15244;49.088;11.886;2022-08-04T15:40:21;95614.84;;;39.84;17.20
27425;BME280;15244;49.088;11.886;2022-08-04T15:51:12;95601.44;;;40.12;17.01
27425;BME280;15244;49.088;11.886;2022-08-04T16:01:28;95593.75;;;40.39;16.77
27425;BME280;15244;49.088;11.886;2022-08-04T16:11:37;95594.06;;;40.61;16.81
27425;BME280;15244;49.088;11.886;2022-08-04T16:21:48;95594.22;;;40.80;16.41
27425;BME280;15244;49.088;11.886;2022-08-04T16:26:52;95601.34;;;40.89;16.08
27425;BME280;15244;49.088;11.886;2022-08-04T16:37:06;95589.97;;;40.99;15.94
27425;BME280;15244;49.088;11.886;2022-08-04T16:52:53;95587.81;;;41.17;16.20
27425;BME280;15244;49.088;11.886;2022-08-04T16:57:56;95584.53;;;41.20;16.09
27425;BME280;15244;49.088;11.886;2022-08-04T17:03:04;95592.69;;;41.24;15.47
27425;BME280;15244;49.088;11.886;2022-08-04T17:08:07;95588.47;;;41.25;15.74
27425;BME280;15244;49.088;11.886;2022-08-04T17:13:38;95582.91;;;41.27;15.99
27425;BME280;15244;49.088;11.886;2022-08-04T17:19:00;95585.75;;;41.27;15.70
27425;BME280;15244;49.088;11.886;2022-08-04T17:24:03;95576.44;;;41.26;15.67
27425;BME280;15244;49.088;11.886;2022-08-04T17:29:18;95582.59;;;41.23;15.57
27425;BME280;15244;49.088;11.886;2022-08-04T17:34:20;95571.00;;;41.21;15.83
27425;BME280;15244;49.088;11.886;2022-08-04T17:39:26;95574.44;;;41.19;15.87
27425;BME280;15244;49.088;11.886;2022-08-04T17:44:38;95577.00;;;41.15;16.18
27425;BME280;15244;49.088;11.886;2022-08-04T17:49:41;95568.84;;;41.11;16.04
27425;BME280;15244;49.088;11.886;2022-08-04T17:55:00;95573.31;;;41.05;15.73
27425;BME280;15244;49.088;11.886;2022-08-04T18:00:03;95574.28;;;40.90;16.07
27425;BME280;15244;49.088;11.886;2022-08-04T18:05:27;95568.69;;;40.65;15.86
27425;BME280;15244;49.088;11.886;2022-08-04T18:10:52;95571.00;;;40.32;16.32
27425;BME280;15244;49.088;11.886;2022-08-04T18:16:04;95572.47;;;39.98;16.40
27425;BME280;15244;49.088;11.886;2022-08-04T18:21:22;95575.25;;;39.63;16.49
27425;BME280;15244;49.088;11.886;2022-08-04T18:26:26;95573.94;;;39.31;16.88
27425;BME280;15244;49.088;11.886;2022-08-04T18:31:28;95569.78;;;38.99;17.13
27425;BME280;15244;49.088;11.886;2022-08-04T18:36:36;95571.47;;;38.70;17.44
27425;BME280;15244;49.088;11.886;2022-08-04T18:41:38;95569.66;;;38.42;17.41
27425;BME280;15244;49.088;11.886;2022-08-04T18:47:01;95572.97;;;38.15;17.79
27425;BME280;15244;49.088;11.886;2022-08-04T18:52:23;95579.25;;;37.90;17.88
27425;BME280;15244;49.088;11.886;2022-08-04T18:57:25;95589.34;;;37.68;18.30
27425;BME280;15244;49.088;11.886;2022-08-04T19:02:51;95580.03;;;37.45;18.11
27425;BME280;15244;49.088;11.886;2022-08-04T19:07:53;95582.50;;;37.25;18.29
27425;BME280;15244;49.088;11.886;2022-08-04T19:13:16;95585.69;;;37.06;18.48
27425;BME280;15244;49.088;11.886;2022-08-04T19:18:27;95590.34;;;36.88;18.70
27425;BME280;15244;49.088;11.886;2022-08-04T19:23:30;95599.97;;;36.70;19.04
27425;BME280;15244;49.088;11.886;2022-08-04T19:28:52;95602.31;;;36.51;19.04
27425;BME280;15244;49.088;11.886;2022-08-04T19:33:57;95603.56;;;36.34;19.26
27425;BME280;15244;49.088;11.886;2022-08-04T19:39:08;95600.44;;;36.17;19.22
27425;BME280;15244;49.088;11.886;2022-08-04T19:44:41;95605.44;;;36.03;19.47
27425;BME280;15244;49.088;11.886;2022-08-04T19:50:10;95608.16;;;35.88;19.71
27425;BME280;15244;49.088;11.886;2022-08-04T19:55:21;95608.81;;;35.73;19.61
27425;BME280;15244;49.088;11.886;2022-08-04T20:00:38;95606.63;;;35.58;20.15
27425;BME280;15244;49.088;11.886;2022-08-04T20:05:51;95614.22;;;35.42;20.03
27425;BME280;15244;49.088;11.886;2022-08-04T20:11:01;95610.69;;;35.28;20.26
27425;BME280;15244;49.088;11.886;2022-08-04T20:16:05;95622.88;;;35.15;20.40
27425;BME280;15244;49.088;11.886;2022-08-04T20:21:28;95616.44;;;35.02;20.30
27425;BME280;15244;49.088;11.886;2022-08-04T20:26:50;95620.09;;;34.89;20.66
27425;BME280;15244;49.088;11.886;2022-08-04T20:31:51;95610.66;;;34.73;20.43
27425;BME280;15244;49.088;11.886;2022-08-04T20:37:09;95609.94;;;34.59;20.80
27425;BME280;15244;49.088;11.886;2022-08-04T20:42:13;95615.28;;;34.49;21.20
27425;BME280;15244;49.088;11.886;2022-08-04T20:47:16;95618.31;;;34.38;21.19
27425;BME280;15244;49.088;11.886;2022-08-04T20:52:23;95610.31;;;34.29;21.05
27425;BME280;15244;49.088;11.886;2022-08-04T20:57:27;95620.31;;;34.17;21.42
27425;BME280;15244;49.088;11.886;2022-08-04T21:02:49;95619.50;;;34.03;21.57
27425;BME280;15244;49.088;11.886;2022-08-04T21:07:52;95612.56;;;33.91;21.82
27425;BME280;15244;49.088;11.886;2022-08-04T21:12:57;95616.34;;;33.80;21.90
27425;BME280;15244;49.088;11.886;2022-08-04T21:17:59;95614.50;;;33.69;22.38
27425;BME280;15244;49.088;11.886;2022-08-04T21:23:06;95620.03;;;33.61;22.30
27425;BME280;15244;49.088;11.886;2022-08-04T21:28:08;95613.47;;;33.53;22.05
27425;BME280;15244;49.088;11.886;2022-08-04T21:33:10;95622.56;;;33.46;22.84
27425;BME280;15244;49.088;11.886;2022-08-04T21:38:15;95622.66;;;33.40;22.45
27425;BME280;15244;49.088;11.886;2022-08-04T21:43:18;95624.59;;;33.32;22.90
27425;BME280;15244;49.088;11.886;2022-08-04T21:48:20;95622.41;;;33.25;22.94
27425;BME280;15244;49.088;11.886;2022-08-04T21:53:22;95623.03;;;33.18;23.52
27425;BME280;15244;49.088;11.886;2022-08-04T21:58:28;95624.97;;;33.10;23.20
27425;BME280;15244;49.088;11.886;2022-08-04T22:03:39;95622.25;;;32.98;23.16
27425;BME280;15244;49.088;11.886;2022-08-04T22:08:57;95621.66;;;32.87;23.35
27425;BME280;15244;49.088;11.886;2022-08-04T22:14:09;95618.78;;;32.73;23.76
27425;BME280;15244;49.088;11.886;2022-08-04T22:19:15;95629.47;;;32.62;23.59
27425;BME280;15244;49.088;11.886;2022-08-04T22:24:29;95629.09;;;32.52;23.69
27425;BME280;15244;49.088;11.886;2022-08-04T22:29:32;95618.91;;;32.43;24.26
27425;BME280;15244;49.088;11.886;2022-08-04T22:34:40;95626.69;;;32.37;24.48
27425;BME280;15244;49.088;11.886;2022-08-04T22:39:53;95625.75;;;32.29;24.33
27425;BME280;15244;49.088;11.886;2022-08-04T22:44:59;95625.59;;;32.21;24.52
27425;BME280;15244;49.088;11.886;2022-08-04T22:50:03;95627.69;;;32.15;24.79
27425;BME280;15244;49.088;11.886;2022-08-04T22:55:25;95625.78;;;32.04;25.06
27425;BME280;15244;49.088;11.886;2022-08-04T23:00:49;95621.28;;;31.95;25.17
27425;BME280;15244;49.088;11.886;2022-08-04T23:06:02;95621.03;;;31.88;25.27
27425;BME280;15244;49.088;11.886;2022-08-04T23:11:08;95622.94;;;31.80;25.36
27425;BME280;15244;49.088;11.886;2022-08-04T23:16:10;95624.06;;;31.71;25.57
27425;BME280;15244;49.088;11.886;2022-08-04T23:21:15;95615.19;;;31.61;25.82
27425;BME280;15244;49.088;11.886;2022-08-04T23:26:17;95613.47;;;31.52;25.61
27425;BME280;15244;49.088;11.886;2022-08-04T23:31:28;95614.28;;;31.47;25.67
27425;BME280;15244;49.088;11.886;2022-08-04T23:36:42;95607.94;;;31.41;26.21
27425;BME280;15244;49.088;11.886;2022-08-04T23:41:47;95602.84;;;31.34;26.12
27425;BME280;15244;49.088;11.886;2022-08-04T23:46:59;95602.91;;;31.28;26.58
27425;BME280;15244;49.088;11.886;2022-08-04T23:52:04;95605.22;;;31.24;26.72
27425;BME280;15244;49.088;11.886;2022-08-04T23:57:10;95597.81;;;31.21;26.86
